Stanley, Wisconsin
Current Conditions -  °F | °C
As of 3:56 AM on Saturday 25 Oct 2014 (Local Time) from KEAU Reporting Station
Clear Clear  
Wind Chill: 45°   Ceiling: Unl
Heat Index: 47°   Visibility: 10mi
Dew Point: 43°   Wind: 5mph
Humidity: 86%   Direction: 240°WSW
Pressure: 29.89"   Gusts: NA
Location:  44.96°N, 90.94°W
Report Text: KEAU 250856Z 24004KT 10SM CLR 08/06 A2989 RMK AO2 SLP125 T00830061 51013
Loading
Personal Weather Stations






























Interactive Weather Map
Tropical Storm Tracking
New forecast layout! Learn more

10-Day Weather Forecast

Advertisements
Track Severe Weather on mobile